Moose, WY

2:08 PM MDT on July 27, 2017 (GMT -0600)
Jackson Hole | | Change Station
Active Advisory: Special Statement

Elev 6447 ft 43.61 °N, 110.74 °W | Updated 17 minutes ago

Scattered Clouds
Scattered Clouds
73 °F
Feels Like 73 °F
N
6
Wind Variable Wind from WSW

Today
High -- | Low -- °F
--% Chance of Precip.
Yesterday
High -- | Low -- °F
Precip. -- in
Pressure 30.28 in
Visibility 10.0 miles
Clouds Scattered Clouds 11000 ft
Dew Point 52 °F
Humidity 47%
Rainfall 0.00 in
Snow Depth Not available.
6:07 AM 8:51 PM
Waxing Crescent, 23% visible
METAR KJAC 271951Z 25005KT 10SM SCT110 23/11 A3028
Pressure 30.28 in
Visibility 10.0 miles
Clouds Scattered Clouds 11000 ft
Dew Point 52 °F
Humidity 47%
Rainfall 0.00 in
Snow Depth Not available.
6:07 AM 8:51 PM
Waxing Crescent, 23% visible
METAR KJAC 271951Z 25005KT 10SM SCT110 23/11 A3028

Get Your Daily Forecast Email!

Thanks for signing up!

Be on the lookout for a verification email in your inbox.

You'll start receiving severe weather alerts in your inbox..

×

10-Day Weather Forecast

Almanac

Astronomy

Jul. 27, 2017 Rise Set
Actual Time
Civil Twilight
Nautical Twilight
Astronomical Twilight
Moon
Length of Visible Light
Length of Day
Tomorrow will be .
, % of the Moon is Illuminated

Today's Extremes

State Highs State Lows

Community

WunderPhotos

Category 6

Welcome to Category 6. This is the collective home for Weather Underground's featured writeups by Dr. Jeff Masters (right), Bob Henson (left), Chris Burt, and other regular contributors.

Nearby

Air Quality

  Air Quality AQ Index Pollutant
Not available.

Snow Depth

Station Depth Elevation

Earthquake Activity

City Distance Mag. Time & Date
Minimum magnitude displayed is 2.5.

Coastal Water Temperatures

Place Temperature

Stations

Nearby Weather Stations

Station Location Temp. Windchill Dew Point Humidity Wind Precip. Elev Updated Type
                   

Watches & Warnings

Special Statement
Issued: 1:26 PM MDT Jul. 27, 2017 – National Weather Service

... Isolated to scattered thunderstorms across the area this
afternoon...

Isolated thunderstorms will continue to develop over the area,
moving toward the east-northeast. Small hail, wind gusts up to 40
mph and brief heavy rain will be the main threats from these
storms.